Time;durP1;ratioP1;P1;durP2;ratioP2;P2;SDS_P1;SDS_P2;PMS_P1;PMS_P2;Temp;Humidity;BMP_temperature;BMP_pressure;BME280_temperature;BME280_humidity;BME280_pressure;Samples;Min_cycle;Max_cycle;Signal;HPM_P1;HPM_P2
2021/07/18 02:42:49;;;;;;;373.77;358.43;;;14.20;99.90;;;;;;6005558;23;20441;-79
2021/07/18 02:45:18;;;;;;;356.83;342.27;;;14.20;99.90;;;;;;6092914;23;20213;-81
2021/07/18 02:47:47;;;;;;;380.67;364.70;;;14.20;99.90;;;;;;6244979;23;20404;-80
2021/07/18 02:50:17;;;;;;;365.97;350.97;;;14.20;99.90;;;;;;6244900;23;20395;-82
2021/07/18 02:52:44;;;;;;;365.53;350.47;;;14.20;99.90;;;;;;6254763;23;20422;-80
2021/07/18 02:55:12;;;;;;;345.43;331.10;;;14.20;99.90;;;;;;6244613;23;20423;-83
2021/07/18 02:57:39;;;;;;;364.97;350.20;;;14.30;99.90;;;;;;6243202;23;20404;-83
2021/07/18 03:03:29;;;;;;;358.03;343.80;;;14.20;99.90;;;;;;6237798;23;20477;-83
2021/07/18 03:05:56;;;;;;;359.33;344.30;;;14.20;99.90;;;;;;6257485;23;20411;-77
2021/07/18 03:08:23;;;;;;;341.00;327.30;;;14.20;99.90;;;;;;6247627;23;20395;-77
2021/07/18 03:10:50;;;;;;;341.43;327.57;;;14.20;99.90;;;;;;6247629;23;20396;-79
2021/07/18 03:13:16;;;;;;;339.30;325.40;;;14.20;99.90;;;;;;6245901;23;20453;-76
2021/07/18 03:15:43;;;;;;;360.37;345.93;;;14.20;99.90;;;;;;6247316;23;20746;-76
2021/07/18 03:18:11;;;;;;;360.90;345.93;;;14.10;99.90;;;;;;6247581;23;20697;-77
2021/07/18 03:20:39;;;;;;;361.60;346.60;;;14.10;99.90;;;;;;6257627;23;20415;-77
2021/07/18 03:23:06;;;;;;;372.17;357.20;;;14.10;99.90;;;;;;6247525;23;20412;-76
2021/07/18 03:25:33;;;;;;;366.30;351.60;;;14.00;99.90;;;;;;6257488;23;20408;-76
2021/07/18 03:28:00;;;;;;;358.47;344.00;;;14.10;99.90;;;;;;6245979;22;20399;-78
2021/07/18 03:30:27;;;;;;;348.23;333.67;;;14.00;99.90;;;;;;6247372;23;20400;-76
2021/07/18 03:32:53;;;;;;;358.93;343.50;;;14.00;99.90;;;;;;6247594;23;20728;-81
2021/07/18 03:35:20;;;;;;;355.63;340.90;;;13.90;99.90;;;;;;6246991;23;20489;-82
2021/07/18 03:37:49;;;;;;;364.23;349.57;;;13.90;99.90;;;;;;6246970;23;20901;-77
2021/07/18 03:40:17;;;;;;;350.93;336.83;;;13.80;99.90;;;;;;6246930;23;20400;-78
2021/07/18 03:42:44;;;;;;;351.50;336.77;;;13.80;99.90;;;;;;6245706;23;20410;-76
2021/07/18 03:45:12;;;;;;;340.30;326.60;;;13.90;99.90;;;;;;6246691;23;20400;-78
2021/07/18 03:47:39;;;;;;;336.30;322.70;;;13.80;99.90;;;;;;6247243;23;20476;-76
2021/07/18 03:50:08;;;;;;;344.80;329.93;;;13.80;99.90;;;;;;6246803;23;20400;-75
2021/07/18 03:52:34;;;;;;;349.83;335.83;;;13.80;99.90;;;;;;6247053;22;20434;-74
2021/07/18 03:58:23;;;;;;;373.17;357.03;;;13.80;99.90;;;;;;6201951;22;20408;-85
2021/07/18 04:00:50;;;;;;;362.67;347.90;;;13.80;99.90;;;;;;6247044;23;20396;-79
2021/07/18 04:03:17;;;;;;;359.93;344.73;;;13.80;99.90;;;;;;6247196;23;20406;-76
2021/07/18 04:05:43;;;;;;;353.37;338.47;;;13.80;99.90;;;;;;6247051;23;20411;-76
2021/07/18 04:08:10;;;;;;;355.63;340.73;;;13.90;99.90;;;;;;6246448;23;20400;-76
2021/07/18 04:10:39;;;;;;;344.13;329.77;;;13.90;99.90;;;;;;6247025;23;20399;-78
2021/07/18 04:13:06;;;;;;;348.90;333.53;;;13.80;99.90;;;;;;6245253;23;20444;-80
2021/07/18 04:15:33;;;;;;;347.47;332.83;;;13.90;99.90;;;;;;6247003;23;20423;-80
2021/07/18 04:18:07;;;;;;;347.27;332.87;;;13.90;99.90;;;;;;6246645;23;20404;-79
2021/07/18 04:20:34;;;;;;;350.63;335.93;;;13.90;99.90;;;;;;6246507;23;20405;-77
2021/07/18 04:23:01;;;;;;;343.57;328.73;;;14.00;99.90;;;;;;6246953;23;20400;-78
2021/07/18 04:25:27;;;;;;;376.83;361.30;;;14.10;99.90;;;;;;6246938;23;20411;-77
2021/07/18 04:27:55;;;;;;;365.23;349.93;;;14.10;99.90;;;;;;6245408;23;20400;-78
2021/07/18 04:30:22;;;;;;;347.77;333.73;;;14.20;99.90;;;;;;6246994;23;20398;-77
2021/07/18 04:32:49;;;;;;;357.87;343.30;;;14.30;99.90;;;;;;6246875;23;20396;-77
2021/07/18 04:35:16;;;;;;;387.23;370.47;;;14.30;99.90;;;;;;6246695;23;20402;-76
2021/07/18 04:37:51;;;;;;;357.07;341.27;;;14.40;99.90;;;;;;6246425;22;20901;-86
2021/07/18 04:40:38;;;;;;;360.90;346.30;;;14.50;99.90;;;;;;6256839;23;20407;-87
2021/07/18 05:19:54;;;;;;;384.40;366.10;;;15.90;99.90;;;;;;4491028;27;18599525;-81
2021/07/18 05:22:23;;;;;;;371.03;353.40;;;16.00;99.90;;;;;;5007810;28;20241;-82
2021/07/18 05:24:50;;;;;;;394.10;376.00;;;16.20;99.90;;;;;;5085667;28;20440;-80
2021/07/18 05:27:19;;;;;;;388.40;370.17;;;16.20;99.90;;;;;;5130137;28;20448;-80
2021/07/18 05:29:46;;;;;;;394.97;376.00;;;16.30;99.90;;;;;;5131058;28;20509;-80
2021/07/18 05:32:13;;;;;;;406.20;385.90;;;16.40;99.90;;;;;;5130990;28;20448;-81
2021/07/18 05:34:42;;;;;;;400.90;381.33;;;16.60;99.90;;;;;;5130672;28;20947;-81
2021/07/18 05:37:09;;;;;;;399.43;380.83;;;16.80;99.90;;;;;;5131018;28;20468;-81
2021/07/18 05:39:36;;;;;;;386.73;369.43;;;17.00;99.90;;;;;;5130846;28;20521;-81
2021/07/18 05:42:03;;;;;;;386.10;369.10;;;17.10;99.90;;;;;;5130794;28;20456;-80
2021/07/18 05:44:30;;;;;;;355.43;340.57;;;17.30;99.90;;;;;;5129369;28;20800;-80
2021/07/18 05:46:57;;;;;;;313.57;300.67;;;17.30;99.90;;;;;;5130490;28;20535;-80
2021/07/18 05:49:24;;;;;;;335.40;321.63;;;17.30;99.90;;;;;;5130516;28;20547;-83
2021/07/18 05:51:52;;;;;;;298.67;286.97;;;17.50;99.90;;;;;;5126307;28;20465;-83
2021/07/18 05:54:19;;;;;;;404.13;388.43;;;17.40;99.90;;;;;;5109770;28;20453;-86
2021/07/18 05:56:46;;;;;;;406.27;391.37;;;17.60;99.90;;;;;;5109912;28;20453;-82
2021/07/18 05:59:13;;;;;;;312.27;299.43;;;17.70;99.90;;;;;;5108417;28;20564;-82
2021/07/18 06:01:40;;;;;;;216.47;206.13;;;17.90;99.90;;;;;;5109663;28;20449;-82
2021/07/18 06:04:07;;;;;;;273.03;260.03;;;17.90;99.90;;;;;;5109714;28;20544;-82
2021/07/18 06:06:33;;;;;;;254.30;242.50;;;18.10;99.90;;;;;;5109789;28;20551;-82
2021/07/18 06:09:01;;;;;;;151.27;141.63;;;18.20;99.90;;;;;;5109297;28;20491;-81
2021/07/18 06:11:28;;;;;;;99.57;91.63;;;18.30;99.90;;;;;;5109526;28;20453;-78
2021/07/18 06:13:55;;;;;;;71.00;63.37;;;18.40;98.50;;;;;;5108205;28;20452;-79
2021/07/18 06:16:22;;;;;;;58.60;40.60;;;18.70;98.90;;;;;;5109517;28;20544;-82
2021/07/18 06:18:49;;;;;;;50.87;23.80;;;18.90;98.00;;;;;;5109472;28;20481;-81
2021/07/18 06:21:15;;;;;;;50.90;20.20;;;18.90;91.20;;;;;;5109603;28;20560;-79
2021/07/18 06:23:43;;;;;;;56.10;22.20;;;18.90;91.30;;;;;;5109504;28;20453;-80
2021/07/18 06:26:11;;;;;;;60.77;26.23;;;18.90;90.70;;;;;;5109201;28;20506;-81
2021/07/18 06:28:38;;;;;;;48.37;22.90;;;19.20;92.30;;;;;;5104842;28;21019;-77
2021/07/18 06:31:04;;;;;;;56.27;26.80;;;18.90;87.60;;;;;;5099545;28;20459;-78
2021/07/18 06:33:31;;;;;;;58.93;26.87;;;18.90;90.70;;;;;;5095790;28;20450;-78
2021/07/18 06:35:58;;;;;;;53.60;24.00;;;18.60;89.20;;;;;;5094943;28;20941;-78
2021/07/18 06:38:25;;;;;;;53.90;24.47;;;18.50;84.70;;;;;;5095541;28;20457;-80
2021/07/18 06:40:52;;;;;;;61.37;29.63;;;18.40;88.20;;;;;;5095702;28;20454;-81
2021/07/18 06:43:20;;;;;;;57.33;29.80;;;18.40;90.00;;;;;;5094433;28;20449;-78
2021/07/18 06:45:47;;;;;;;58.57;34.40;;;18.30;90.60;;;;;;5095535;28;20454;-79
2021/07/18 06:48:14;;;;;;;60.70;38.77;;;18.40;89.80;;;;;;5092593;28;20485;-79
2021/07/18 06:50:40;;;;;;;56.20;36.37;;;18.30;91.00;;;;;;5074729;28;20477;-78
2021/07/18 06:53:07;;;;;;;57.00;45.30;;;18.30;91.40;;;;;;5075111;28;20454;-80
2021/07/18 06:55:35;;;;;;;53.47;35.23;;;18.40;91.00;;;;;;5075199;28;20450;-79
2021/07/18 06:58:02;;;;;;;57.47;40.67;;;18.40;91.00;;;;;;5073890;28;20490;-79
2021/07/18 07:00:30;;;;;;;51.57;31.43;;;18.50;90.00;;;;;;5075184;28;20459;-80
2021/07/18 07:02:57;;;;;;;58.10;33.03;;;18.80;88.10;;;;;;5075119;28;20454;-81
2021/07/18 07:05:24;;;;;;;53.13;32.03;;;19.00;87.40;;;;;;5074967;28;20461;-79
2021/07/18 07:07:50;;;;;;;57.03;25.10;;;19.70;90.70;;;;;;5079645;28;20985;-79
2021/07/18 07:10:19;;;;;;;50.53;17.97;;;20.10;80.30;;;;;;5094446;28;20450;-79
2021/07/18 07:12:48;;;;;;;54.00;19.63;;;20.20;75.50;;;;;;5093664;28;20450;-80
2021/07/18 07:15:17;;;;;;;50.57;17.77;;;20.40;72.50;;;;;;5095068;28;20464;-80
2021/07/18 07:17:46;;;;;;;52.23;16.97;;;21.00;69.60;;;;;;5094710;28;20488;-79
2021/07/18 07:20:13;;;;;;;52.77;14.50;;;21.20;63.20;;;;;;5094918;28;20450;-80
2021/07/18 07:22:41;;;;;;;50.83;16.57;;;21.20;59.00;;;;;;5094574;28;20453;-79
2021/07/18 07:25:10;;;;;;;54.27;18.67;;;21.10;54.30;;;;;;5094774;28;20474;-78
2021/07/18 07:27:37;;;;;;;52.87;16.87;;;21.40;54.50;;;;;;5093435;28;20465;-77
2021/07/18 07:30:05;;;;;;;54.30;15.97;;;21.40;54.50;;;;;;5094737;28;20449;-81
2021/07/18 07:32:38;;;;;;;56.03;14.63;;;21.50;50.20;;;;;;5094413;28;20460;-81
2021/07/18 07:35:09;;;;;;;59.23;14.37;;;21.60;50.40;;;;;;5094440;28;20539;-81
2021/07/18 07:37:36;;;;;;;53.67;14.13;;;22.10;47.90;;;;;;5094686;28;20460;-81
2021/07/18 07:40:05;;;;;;;57.40;14.67;;;22.20;43.70;;;;;;5088606;28;20920;-78
2021/07/18 07:42:32;;;;;;;55.87;13.10;;;22.90;44.20;;;;;;5070869;28;20555;-80
2021/07/18 07:44:59;;;;;;;55.60;13.07;;;23.00;40.70;;;;;;5072456;28;21141;-80
2021/07/18 07:47:25;;;;;;;52.00;14.60;;;22.60;41.40;;;;;;5072644;28;20953;-80
2021/07/18 07:49:52;;;;;;;58.83;15.63;;;22.50;39.00;;;;;;5072576;28;20454;-82
2021/07/18 07:52:20;;;;;;;55.97;14.20;;;22.90;38.00;;;;;;5072585;28;20455;-81
2021/07/18 07:54:47;;;;;;;58.00;18.80;;;23.10;40.40;;;;;;5072588;28;20828;-81
2021/07/18 07:57:14;;;;;;;55.00;14.00;;;23.40;38.50;;;;;;5072154;28;20549;-77
2021/07/18 07:59:41;;;;;;;54.00;12.07;;;23.20;37.30;;;;;;5073015;28;20474;-78
2021/07/18 08:02:09;;;;;;;59.87;13.23;;;23.10;33.80;;;;;;5073913;28;20462;-80
2021/07/18 08:04:35;;;;;;;56.60;13.73;;;23.70;35.00;;;;;;5073709;28;20450;-80
2021/07/18 08:07:02;;;;;;;57.03;10.87;;;23.40;34.70;;;;;;5073682;28;20457;-79
2021/07/18 08:09:30;;;;;;;61.10;12.80;;;23.70;30.40;;;;;;5073566;28;20482;-79
2021/07/18 08:11:57;;;;;;;59.30;12.03;;;24.00;35.90;;;;;;5073550;28;20451;-80
2021/07/18 08:14:24;;;;;;;56.47;9.33;;;23.90;31.60;;;;;;5072467;28;20489;-80
2021/07/18 08:16:51;;;;;;;54.47;9.37;;;24.00;31.90;;;;;;5073536;28;20458;-81
2021/07/18 08:19:17;;;;;;;62.50;10.50;;;24.30;30.00;;;;;;5073292;28;20474;-80
2021/07/18 08:21:44;;;;;;;61.10;14.43;;;24.30;30.00;;;;;;5073264;28;20466;-82
2021/07/18 08:24:12;;;;;;;56.73;9.37;;;23.90;27.90;;;;;;5073463;28;20458;-77
2021/07/18 08:26:40;;;;;;;59.00;15.20;;;23.80;29.80;;;;;;5091922;28;20438;-77
2021/07/18 08:29:07;;;;;;;57.30;9.87;;;24.00;29.00;;;;;;5092139;28;20492;-77
2021/07/18 08:31:34;;;;;;;58.23;9.70;;;23.90;28.20;;;;;;5093572;28;20799;-79
2021/07/18 08:34:00;;;;;;;56.30;14.67;;;24.00;29.90;;;;;;5093507;28;20445;-80
2021/07/18 08:36:27;;;;;;;59.10;10.70;;;24.00;28.80;;;;;;5093492;28;20453;-82
2021/07/18 08:38:54;;;;;;;54.10;8.53;;;24.10;27.10;;;;;;5093478;28;20457;-78
2021/07/18 08:41:22;;;;;;;58.10;8.80;;;24.70;26.20;;;;;;5093366;28;20458;-79
2021/07/18 08:43:51;;;;;;;53.90;7.40;;;24.50;25.50;;;;;;5092022;28;20510;-80
2021/07/18 08:46:20;;;;;;;59.33;13.93;;;24.80;26.40;;;;;;5093287;28;20464;-76
2021/07/18 08:48:47;;;;;;;58.93;9.60;;;24.90;23.90;;;;;;5093205;28;20992;-85
2021/07/18 08:51:14;;;;;;;54.43;13.50;;;24.60;27.00;;;;;;5092872;28;20925;-83
2021/07/18 08:53:42;;;;;;;54.33;9.27;;;25.40;25.20;;;;;;5092749;28;20458;-79
2021/07/18 08:56:09;;;;;;;55.83;13.50;;;25.30;22.70;;;;;;5093126;28;20442;-84
2021/07/18 08:58:36;;;;;;;57.00;10.57;;;25.40;22.40;;;;;;5092148;28;20453;-78
2021/07/18 09:01:04;;;;;;;56.97;9.33;;;24.80;23.20;;;;;;5093146;28;20954;-78
2021/07/18 09:03:31;;;;;;;57.27;10.47;;;25.00;23.30;;;;;;5093134;28;20449;-81
2021/07/18 09:06:08;;;;;;;55.37;12.50;;;25.00;23.90;;;;;;5093035;28;20802;-78
2021/07/18 09:08:42;;;;;;;59.83;8.07;;;25.20;23.40;;;;;;5092839;28;20495;-83
2021/07/18 09:11:17;;;;;;;59.80;39.53;;;25.80;21.50;;;;;;5092934;28;20437;-79
2021/07/18 09:13:55;;;;;;;58.60;15.07;;;25.30;19.70;;;;;;5091816;28;20452;-86
2021/07/18 09:16:28;;;;;;;62.47;23.03;;;25.50;22.90;;;;;;5093019;28;20450;-77
2021/07/18 09:19:13;;;;;;;58.50;10.30;;;25.00;21.50;;;;;;5092712;28;20482;-80
2021/07/18 09:21:40;;;;;;;57.37;9.70;;;25.80;20.30;;;;;;5092950;28;20826;-81
2021/07/18 09:24:18;;;;;;;59.77;13.13;;;26.00;18.00;;;;;;5092806;28;20813;-81
2021/07/18 09:26:44;;;;;;;61.30;12.32;;;25.20;19.60;;;;;;5092390;28;20452;-83
2021/07/18 09:29:25;;;;;;;65.20;8.83;;;25.20;20.10;;;;;;5091353;28;20230;-83
2021/07/18 09:32:02;;;;;;;54.27;8.77;;;25.70;20.10;;;;;;5092907;28;20511;-84
2021/07/18 09:34:35;;;;;;;55.03;22.77;;;25.60;20.50;;;;;;5092721;28;20450;-81
2021/07/18 09:37:09;;;;;;;54.50;8.23;;;25.70;19.20;;;;;;5092429;28;20446;-78
2021/07/18 09:39:36;;;;;;;55.37;16.73;;;25.80;16.20;;;;;;5092592;28;20449;-78
2021/07/18 09:42:04;;;;;;;53.80;18.63;;;25.80;16.30;;;;;;5092640;28;20450;-79
2021/07/18 09:44:44;;;;;;;55.70;8.43;;;26.20;16.40;;;;;;5091375;28;20460;-80
2021/07/18 09:47:13;;;;;;;55.10;13.17;;;27.20;15.70;;;;;;5092687;28;20999;-82
2021/07/18 09:49:40;;;;;;;53.73;7.97;;;27.00;11.00;;;;;;5092351;28;20493;-79
2021/07/18 09:52:20;;;;;;;55.13;19.57;;;27.20;13.90;;;;;;5092465;28;20449;-81
2021/07/18 09:54:48;;;;;;;55.53;13.20;;;26.90;13.70;;;;;;5092574;28;20489;-80
2021/07/18 09:57:36;;;;;;;62.40;15.73;;;27.50;12.30;;;;;;5092404;28;20445;-80
2021/07/18 10:00:06;;;;;;;61.60;17.70;;;27.10;12.20;;;;;;5092603;28;20456;-79
2021/07/18 10:02:35;;;;;;;59.70;25.77;;;27.70;14.10;;;;;;5092540;28;20453;-81
2021/07/18 10:05:03;;;;;;;62.13;36.53;;;27.60;10.90;;;;;;5094813;28;20445;-80
2021/07/18 10:07:32;;;;;;;59.90;26.80;;;28.20;10.20;;;;;;5096033;28;20464;-82
2021/07/18 10:09:59;;;;;;;60.60;28.37;;;28.00;9.80;;;;;;5096147;28;20485;-82
2021/07/18 10:12:26;;;;;;;63.33;27.30;;;27.60;10.80;;;;;;5095088;28;20459;-82
2021/07/18 10:14:54;;;;;;;61.23;33.57;;;27.10;10.80;;;;;;5096190;28;20989;-83
2021/07/18 10:17:23;;;;;;;65.03;39.90;;;27.20;12.50;;;;;;5096032;28;20534;-81
2021/07/18 10:19:51;;;;;;;56.20;14.67;;;27.80;11.00;;;;;;5096243;28;20972;-80
2021/07/18 10:22:19;;;;;;;56.17;22.07;;;27.90;9.70;;;;;;5096178;28;20449;-81
2021/07/18 10:24:47;;;;;;;57.80;18.40;;;27.60;8.80;;;;;;5096008;28;20449;-82
2021/07/18 10:28:02;;;;;;;61.67;32.10;;;27.70;10.00;;;;;;5095748;28;20449;-86
2021/07/18 10:47:06;;;;;;;57.23;23.60;;;27.50;9.50;;;;;;4877734;29;20454;-84
2021/07/18 10:49:54;;;;;;;55.50;18.83;;;27.60;8.40;;;;;;4930205;28;20462;-84
2021/07/18 10:52:31;;;;;;;53.13;11.23;;;28.00;6.70;;;;;;5095457;28;20511;-84
2021/07/18 10:55:23;;;;;;;59.93;27.00;;;28.30;5.50;;;;;;5095306;28;20448;-83
2021/07/18 10:57:53;;;;;;;63.07;45.30;;;28.10;6.40;;;;;;5073960;28;20433;-81
2021/07/18 11:00:26;;;;;;;65.43;36.77;;;27.80;4.90;;;;;;5075015;28;20517;-84
2021/07/18 11:03:35;;;;;;;53.70;10.47;;;28.30;8.70;;;;;;5075096;28;20541;-84
2021/07/18 11:06:47;;;;;;;;;;;;;;;;;;;;;
2021/07/18 11:09:25;;;;;;;69.33;45.27;;;30.10;3.00;;;;;;4963938;28;20445;-85
2021/07/18 11:19:19;;;;;;;;;;;;;;;;;;;;;
2021/07/18 11:21:49;;;;;;;66.23;39.83;;;28.40;4.00;;;;;;4941272;29;20455;-84
2021/07/18 11:24:36;;;;;;;55.43;11.50;;;28.30;5.20;;;;;;4955142;29;20923;-87
2021/07/18 11:27:22;;;;;;;65.00;46.03;;;28.60;4.00;;;;;;5022105;28;20469;-87
2021/07/18 11:29:49;;;;;;;63.17;51.67;;;28.60;5.30;;;;;;5075090;28;20497;-90
2021/07/18 11:32:21;;;;;;;53.47;18.03;;;28.60;2.30;;;;;;5075440;28;20508;-84
2021/07/18 11:34:49;;;;;;;52.43;8.00;;;28.80;5.00;;;;;;5075868;28;20472;-91
2021/07/18 11:37:17;;;;;;;57.70;22.73;;;29.40;6.20;;;;;;5091411;28;20484;-83
2021/07/18 11:39:44;;;;;;;61.53;37.23;;;29.10;2.90;;;;;;5093201;28;20552;-86
2021/07/18 11:42:13;;;;;;;58.50;23.57;;;28.70;2.30;;;;;;5092990;28;20521;-83
2021/07/18 11:44:41;;;;;;;52.37;7.17;;;28.80;3.40;;;;;;5091899;28;20548;-86
2021/07/18 11:47:11;;;;;;;55.93;18.60;;;29.80;2.70;;;;;;5092549;28;20449;-89
2021/07/18 11:49:41;;;;;;;56.30;21.90;;;29.70;1.10;;;;;;5093409;28;20492;-86
2021/07/18 11:52:09;;;;;;;56.17;17.07;;;29.70;1.00;;;;;;5093044;28;20460;-84
2021/07/18 11:54:38;;;;;;;60.83;19.70;;;29.90;1.00;;;;;;5092697;28;20944;-82
2021/07/18 11:57:11;;;;;;;59.30;25.53;;;29.20;2.60;;;;;;5092866;28;20449;-85
2021/07/18 11:59:40;;;;;;;105.57;96.10;;;29.50;1.70;;;;;;5091635;28;21079;-86
2021/07/18 12:02:07;;;;;;;78.97;70.87;;;28.50;1.00;;;;;;5092688;28;20456;-83
2021/07/18 12:04:35;;;;;;;58.17;29.27;;;28.60;2.20;;;;;;5093991;28;20467;-87
2021/07/18 12:07:03;;;;;;;59.87;33.43;;;29.00;2.40;;;;;;5093913;28;20536;-81
2021/07/18 12:09:32;;;;;;;65.07;47.30;;;29.10;2.50;;;;;;5094093;28;20455;-82
2021/07/18 12:12:01;;;;;;;57.63;22.13;;;29.00;1.60;;;;;;5093845;28;20485;-80
2021/07/18 12:14:32;;;;;;;60.30;24.07;;;29.50;1.90;;;;;;5092619;28;20532;-80
2021/07/18 12:16:59;;;;;;;62.03;33.53;;;29.70;1.00;;;;;;5094071;28;20442;-79
2021/07/18 12:19:28;;;;;;;149.03;138.20;;;29.90;1.00;;;;;;5093744;28;20568;-80
2021/07/18 12:21:56;;;;;;;112.13;102.70;;;29.50;1.00;;;;;;5093860;28;20468;-80
2021/07/18 12:24:26;;;;;;;69.63;47.30;;;28.80;1.00;;;;;;5093638;28;20449;-79
2021/07/18 12:27:19;;;;;;;66.53;45.73;;;28.90;1.00;;;;;;5072971;28;20458;-80
2021/07/18 12:29:50;;;;;;;55.97;18.03;;;29.20;1.10;;;;;;5062731;28;20467;-79
2021/07/18 12:32:18;;;;;;;66.23;54.20;;;29.10;1.30;;;;;;5073404;28;20454;-78
2021/07/18 12:34:47;;;;;;;55.87;21.10;;;29.60;1.00;;;;;;5073202;28;20461;-83
2021/07/18 12:37:15;;;;;;;55.00;17.33;;;29.60;1.00;;;;;;5073257;28;20454;-80
2021/07/18 12:39:43;;;;;;;56.37;18.97;;;29.20;1.00;;;;;;5073122;28;20488;-79
2021/07/18 12:42:13;;;;;;;57.80;29.60;;;29.70;1.00;;;;;;5081428;28;20562;-82
2021/07/18 12:44:47;;;;;;;58.27;41.53;;;29.90;1.00;;;;;;5092091;28;20464;-81
2021/07/18 12:47:20;;;;;;;56.93;22.57;;;29.70;1.00;;;;;;5093312;28;20449;-80
2021/07/18 12:50:01;;;;;;;55.37;18.70;;;29.80;1.00;;;;;;5093324;28;20457;-81
2021/07/18 12:52:27;;;;;;;60.07;39.87;;;29.80;1.00;;;;;;5093262;28;20453;-81
2021/07/18 12:54:54;;;;;;;57.53;35.97;;;29.60;1.00;;;;;;5093405;28;20461;-79
2021/07/18 12:57:29;;;;;;;59.83;28.13;;;29.60;1.00;;;;;;5092600;28;20453;-79
2021/07/18 13:00:03;;;;;;;71.47;55.70;;;29.60;1.00;;;;;;5092730;28;20465;-79
2021/07/18 13:02:30;;;;;;;60.20;33.20;;;29.10;1.30;;;;;;5092330;28;20815;-79
2021/07/18 13:05:02;;;;;;;61.50;36.00;;;29.40;1.20;;;;;;5091100;28;20456;-79
2021/07/18 13:07:29;;;;;;;65.13;36.33;;;29.50;1.10;;;;;;5091518;28;20461;-78
2021/07/18 13:10:13;;;;;;;62.83;30.93;;;29.20;1.00;;;;;;5091571;28;20453;-81
2021/07/18 13:12:41;;;;;;;54.97;16.10;;;29.40;1.00;;;;;;5088328;28;20983;-80
2021/07/18 13:15:18;;;;;;;84.23;75.47;;;29.50;2.50;;;;;;5091797;28;20795;-77
2021/07/18 13:17:55;;;;;;;53.67;28.33;;;29.10;1.00;;;;;;5091402;28;20484;-79
2021/07/18 13:20:24;;;;;;;65.57;32.90;;;30.10;1.00;;;;;;5091302;28;20489;-78
2021/07/18 13:22:51;;;;;;;58.43;33.63;;;30.20;1.00;;;;;;5091538;28;20799;-78
2021/07/18 13:25:20;;;;;;;54.90;15.10;;;30.20;1.00;;;;;;5091585;28;20424;-78
2021/07/18 13:27:48;;;;;;;63.30;49.10;;;30.50;1.00;;;;;;5090190;28;20456;-80
2021/07/18 13:30:17;;;;;;;57.27;24.70;;;29.60;1.00;;;;;;5091838;28;20940;-79
2021/07/18 13:32:45;;;;;;;62.70;34.73;;;30.40;1.00;;;;;;5091465;28;20456;-79
2021/07/18 13:35:13;;;;;;;143.53;131.53;;;30.50;1.00;;;;;;5091267;28;20435;-78
2021/07/18 13:37:47;;;;;;;62.10;38.50;;;29.90;1.00;;;;;;5091218;28;20771;-79
2021/07/18 13:40:27;;;;;;;72.47;60.60;;;29.90;1.00;;;;;;5094047;28;20487;-79
2021/07/18 13:43:06;;;;;;;60.80;31.03;;;29.80;1.00;;;;;;5094133;28;20456;-78
2021/07/18 13:45:34;;;;;;;59.50;19.63;;;29.50;1.00;;;;;;5095249;28;20936;-81
2021/07/18 13:48:01;;;;;;;71.47;62.93;;;30.20;1.00;;;;;;5095202;28;20463;-78
2021/07/18 13:50:28;;;;;;;66.93;45.07;;;30.20;1.00;;;;;;5095323;28;20432;-79
2021/07/18 13:52:55;;;;;;;67.70;47.37;;;30.00;1.00;;;;;;5095152;28;20485;-78
2021/07/18 13:55:22;;;;;;;60.50;16.73;;;30.00;1.00;;;;;;5095061;28;20453;-81
2021/07/18 13:57:49;;;;;;;71.70;59.93;;;30.20;1.00;;;;;;5093853;28;20480;-78
2021/07/18 14:00:16;;;;;;;63.13;27.73;;;29.60;1.00;;;;;;5095867;28;20531;-79
2021/07/18 14:02:46;;;;;;;115.13;105.33;;;29.60;1.90;;;;;;5096387;28;20941;-79
2021/07/18 14:05:13;;;;;;;56.73;16.13;;;29.40;1.00;;;;;;5096421;28;20453;-78
2021/07/18 14:07:40;;;;;;;59.40;13.83;;;29.70;1.00;;;;;;5096340;28;20932;-78
2021/07/18 14:10:10;;;;;;;57.93;30.37;;;30.40;1.00;;;;;;5096134;28;20457;-81
2021/07/18 14:12:37;;;;;;;71.83;58.47;;;30.10;1.00;;;;;;5094985;28;20544;-78
2021/07/18 14:15:06;;;;;;;59.77;36.43;;;30.30;1.00;;;;;;5096181;28;20532;-79
2021/07/18 14:17:33;;;;;;;86.43;77.77;;;30.40;1.00;;;;;;5095905;28;20477;-78
2021/07/18 14:20:01;;;;;;;64.03;57.07;;;29.80;1.00;;;;;;5096034;28;20482;-79
2021/07/18 14:22:27;;;;;;;63.47;48.03;;;29.90;1.00;;;;;;5096005;28;20461;-77
2021/07/18 14:24:54;;;;;;;74.43;67.17;;;29.30;1.00;;;;;;5095862;28;20963;-78
2021/07/18 14:27:21;;;;;;;61.30;35.67;;;29.80;1.00;;;;;;5095705;28;20428;-78
2021/07/18 14:29:48;;;;;;;59.60;31.93;;;29.70;1.00;;;;;;5095432;28;20449;-75
2021/07/18 14:32:14;;;;;;;109.33;99.37;;;29.70;1.00;;;;;;5095953;28;20457;-80
2021/07/18 14:34:41;;;;;;;58.50;27.43;;;29.40;1.00;;;;;;5095643;28;20460;-78
2021/07/18 14:37:09;;;;;;;55.07;14.83;;;29.90;1.00;;;;;;5095827;28;20453;-78
2021/07/18 14:39:36;;;;;;;57.63;29.17;;;30.40;1.00;;;;;;5095662;28;20449;-76
2021/07/18 14:42:03;;;;;;;58.87;22.00;;;30.30;1.00;;;;;;5095681;28;20456;-79
2021/07/18 14:44:30;;;;;;;68.77;48.03;;;30.00;1.00;;;;;;5094523;28;20464;-78
2021/07/18 14:46:57;;;;;;;63.83;34.23;;;29.60;1.00;;;;;;5095543;28;20434;-77
2021/07/18 14:49:24;;;;;;;71.73;63.63;;;29.30;1.00;;;;;;5095229;28;20449;-81
2021/07/18 14:51:51;;;;;;;93.50;84.00;;;29.20;1.00;;;;;;5095355;28;20428;-76
2021/07/18 14:54:19;;;;;;;66.80;40.77;;;29.10;3.30;;;;;;5095497;28;20452;-74
2021/07/18 14:56:46;;;;;;;62.00;27.10;;;29.40;1.00;;;;;;5094823;28;20446;-75
2021/07/18 14:59:13;;;;;;;61.37;28.80;;;29.70;1.00;;;;;;5094007;28;20453;-75
2021/07/18 15:01:39;;;;;;;133.50;123.00;;;29.80;1.00;;;;;;5095304;28;20484;-78
2021/07/18 15:04:06;;;;;;;67.80;42.30;;;29.50;1.00;;;;;;5094531;28;20456;-76
2021/07/18 15:06:33;;;;;;;83.47;74.47;;;29.50;1.00;;;;;;5094596;28;20449;-75
2021/07/18 15:09:00;;;;;;;65.10;39.83;;;29.20;1.00;;;;;;5094155;28;20424;-77
2021/07/18 15:11:28;;;;;;;86.03;76.70;;;29.20;1.00;;;;;;5094259;28;20453;-76
2021/07/18 15:13:55;;;;;;;134.70;107.00;;;29.30;1.00;;;;;;5092886;28;20450;-78
2021/07/18 15:16:23;;;;;;;67.03;39.63;;;29.60;1.00;;;;;;5094403;28;20435;-77
2021/07/18 15:18:50;;;;;;;58.20;16.10;;;29.80;1.00;;;;;;5094012;28;20521;-75
2021/07/18 15:21:16;;;;;;;74.17;66.17;;;30.20;1.00;;;;;;5094288;28;20477;-76
2021/07/18 15:23:43;;;;;;;66.00;50.67;;;30.00;1.00;;;;;;5094206;28;20797;-75
2021/07/18 15:26:10;;;;;;;112.73;103.07;;;30.10;1.00;;;;;;5093788;28;20955;-77
2021/07/18 15:28:38;;;;;;;76.13;33.40;;;29.90;1.00;;;;;;5092813;28;20824;-75
2021/07/18 15:31:05;;;;;;;82.17;73.70;;;29.90;1.00;;;;;;5093830;28;20449;-77
2021/07/18 15:33:32;;;;;;;73.37;58.20;;;29.40;1.00;;;;;;5093550;28;20937;-76
2021/07/18 15:35:58;;;;;;;63.13;33.97;;;28.50;1.00;;;;;;5093623;28;20457;-75
2021/07/18 15:38:25;;;;;;;66.77;54.07;;;28.30;2.10;;;;;;5093740;28;20449;-78
2021/07/18 15:40:52;;;;;;;62.87;19.00;;;28.60;1.00;;;;;;5093597;28;20488;-78
2021/07/18 15:43:19;;;;;;;110.40;101.10;;;29.10;1.00;;;;;;5092455;28;20452;-78
2021/07/18 15:45:48;;;;;;;63.90;35.60;;;29.10;1.00;;;;;;5093698;28;20468;-76
2021/07/18 15:48:15;;;;;;;59.40;43.93;;;29.30;1.00;;;;;;5093719;28;21059;-79
2021/07/18 15:50:41;;;;;;;69.20;45.93;;;29.40;1.00;;;;;;5093557;28;20457;-76
2021/07/18 15:53:08;;;;;;;62.13;33.77;;;29.30;1.00;;;;;;5093185;28;20456;-76
2021/07/18 15:55:35;;;;;;;61.03;30.20;;;29.40;1.00;;;;;;5093559;28;20468;-78
2021/07/18 15:58:02;;;;;;;70.07;62.97;;;29.60;1.00;;;;;;5092175;28;20811;-75
2021/07/18 16:00:29;;;;;;;63.80;38.33;;;29.80;1.00;;;;;;5098476;28;20487;-76
2021/07/18 16:02:57;;;;;;;60.93;27.57;;;30.00;1.00;;;;;;5099326;28;20450;-76
2021/07/18 16:05:24;;;;;;;72.90;61.63;;;30.10;1.00;;;;;;5093164;28;20815;-75
2021/07/18 16:07:51;;;;;;;59.60;29.80;;;29.90;1.00;;;;;;5077628;28;20450;-75
2021/07/18 16:10:17;;;;;;;65.93;43.33;;;29.80;1.00;;;;;;5093125;28;20449;-76
2021/07/18 16:12:45;;;;;;;77.07;68.90;;;29.60;1.00;;;;;;5091996;28;20457;-75
2021/07/18 16:15:13;;;;;;;76.63;63.10;;;28.80;1.00;;;;;;5093593;28;20449;-76
2021/07/18 16:17:41;;;;;;;67.23;40.13;;;28.60;1.00;;;;;;5093485;28;20531;-75
2021/07/18 16:20:11;;;;;;;64.87;36.77;;;28.60;2.20;;;;;;5090778;28;20908;-74
2021/07/18 16:22:38;;;;;;;70.17;53.03;;;28.50;2.10;;;;;;5092828;28;20956;-75
2021/07/18 16:25:06;;;;;;;65.37;42.77;;;28.40;1.00;;;;;;5093485;28;20457;-75
2021/07/18 16:27:39;;;;;;;58.53;17.13;;;28.80;1.00;;;;;;5091789;28;20453;-77